sensor_id;sensor_type;location;lat;lon;timestamp;P1;durP1;ratioP1;P2;durP2;ratioP2
79052;SDS011;68451;49.510;6.026;2023-03-23T00:00:37;5.00;;;3.55;;
79052;SDS011;68451;49.510;6.026;2023-03-23T00:03:02;5.15;;;3.42;;
79052;SDS011;68451;49.510;6.026;2023-03-23T00:05:28;5.93;;;4.00;;
79052;SDS011;68451;49.510;6.026;2023-03-23T00:07:54;6.55;;;3.90;;
79052;SDS011;68451;49.510;6.026;2023-03-23T00:10:20;6.13;;;3.50;;
79052;SDS011;68451;49.510;6.026;2023-03-23T00:12:46;5.30;;;3.60;;
79052;SDS011;68451;49.510;6.026;2023-03-23T00:15:15;4.88;;;3.42;;
79052;SDS011;68451;49.510;6.026;2023-03-23T00:17:41;5.30;;;3.42;;
79052;SDS011;68451;49.510;6.026;2023-03-23T00:20:08;4.40;;;3.33;;
79052;SDS011;68451;49.510;6.026;2023-03-23T00:22:36;5.30;;;3.42;;
79052;SDS011;68451;49.510;6.026;2023-03-23T00:25:03;4.40;;;3.17;;
79052;SDS011;68451;49.510;6.026;2023-03-23T00:27:30;4.60;;;3.47;;
79052;SDS011;68451;49.510;6.026;2023-03-23T00:29:55;4.55;;;3.25;;
79052;SDS011;68451;49.510;6.026;2023-03-23T00:32:23;3.67;;;3.28;;
79052;SDS011;68451;49.510;6.026;2023-03-23T00:34:57;4.15;;;2.95;;
79052;SDS011;68451;49.510;6.026;2023-03-23T00:37:26;5.65;;;3.70;;
79052;SDS011;68451;49.510;6.026;2023-03-23T00:39:51;3.58;;;2.90;;
79052;SDS011;68451;49.510;6.026;2023-03-23T00:42:22;3.72;;;2.30;;
79052;SDS011;68451;49.510;6.026;2023-03-23T00:44:48;5.40;;;3.22;;
79052;SDS011;68451;49.510;6.026;2023-03-23T00:47:13;3.95;;;3.22;;
79052;SDS011;68451;49.510;6.026;2023-03-23T00:49:40;3.83;;;2.70;;
79052;SDS011;68451;49.510;6.026;2023-03-23T00:52:06;4.18;;;2.83;;
79052;SDS011;68451;49.510;6.026;2023-03-23T00:54:32;2.90;;;2.40;;
79052;SDS011;68451;49.510;6.026;2023-03-23T00:56:59;4.95;;;2.67;;
79052;SDS011;68451;49.510;6.026;2023-03-23T00:59:26;4.13;;;3.28;;
79052;SDS011;68451;49.510;6.026;2023-03-23T01:01:52;5.25;;;3.30;;
79052;SDS011;68451;49.510;6.026;2023-03-23T01:04:17;4.32;;;3.20;;
79052;SDS011;68451;49.510;6.026;2023-03-23T01:06:43;4.72;;;3.17;;
79052;SDS011;68451;49.510;6.026;2023-03-23T01:09:10;4.95;;;3.05;;
79052;SDS011;68451;49.510;6.026;2023-03-23T01:11:41;3.10;;;2.42;;
79052;SDS011;68451;49.510;6.026;2023-03-23T01:14:10;3.05;;;2.65;;
79052;SDS011;68451;49.510;6.026;2023-03-23T01:16:37;3.50;;;2.80;;
79052;SDS011;68451;49.510;6.026;2023-03-23T01:19:03;3.92;;;2.92;;
79052;SDS011;68451;49.510;6.026;2023-03-23T01:21:29;4.07;;;3.00;;
79052;SDS011;68451;49.510;6.026;2023-03-23T01:23:54;3.58;;;2.83;;
79052;SDS011;68451;49.510;6.026;2023-03-23T01:26:21;3.95;;;2.85;;
79052;SDS011;68451;49.510;6.026;2023-03-23T01:28:48;4.13;;;3.10;;
79052;SDS011;68451;49.510;6.026;2023-03-23T01:31:18;3.35;;;2.78;;
79052;SDS011;68451;49.510;6.026;2023-03-23T01:33:45;4.65;;;2.67;;
79052;SDS011;68451;49.510;6.026;2023-03-23T01:36:13;3.40;;;2.92;;
79052;SDS011;68451;49.510;6.026;2023-03-23T01:38:44;3.33;;;2.50;;
79052;SDS011;68451;49.510;6.026;2023-03-23T01:41:11;4.40;;;3.08;;
79052;SDS011;68451;49.510;6.026;2023-03-23T01:43:53;3.65;;;2.60;;
79052;SDS011;68451;49.510;6.026;2023-03-23T01:46:29;3.72;;;2.55;;
79052;SDS011;68451;49.510;6.026;2023-03-23T01:48:58;3.05;;;2.17;;
79052;SDS011;68451;49.510;6.026;2023-03-23T01:51:34;3.88;;;2.33;;
79052;SDS011;68451;49.510;6.026;2023-03-23T01:54:04;3.63;;;2.58;;
79052;SDS011;68451;49.510;6.026;2023-03-23T01:56:34;3.55;;;3.00;;
79052;SDS011;68451;49.510;6.026;2023-03-23T01:59:05;4.50;;;2.97;;
79052;SDS011;68451;49.510;6.026;2023-03-23T02:01:32;3.38;;;2.42;;
79052;SDS011;68451;49.510;6.026;2023-03-23T02:04:01;3.22;;;2.78;;
79052;SDS011;68451;49.510;6.026;2023-03-23T02:06:28;4.03;;;3.17;;
79052;SDS011;68451;49.510;6.026;2023-03-23T02:08:53;2.75;;;2.33;;
79052;SDS011;68451;49.510;6.026;2023-03-23T02:11:21;5.68;;;2.40;;
79052;SDS011;68451;49.510;6.026;2023-03-23T02:13:47;3.28;;;2.88;;
79052;SDS011;68451;49.510;6.026;2023-03-23T02:19:07;4.20;;;2.75;;
79052;SDS011;68451;49.510;6.026;2023-03-23T02:25:06;4.13;;;2.72;;
79052;SDS011;68451;49.510;6.026;2023-03-23T02:33:49;2.30;;;1.83;;
79052;SDS011;68451;49.510;6.026;2023-03-23T02:36:23;3.00;;;1.83;;
79052;SDS011;68451;49.510;6.026;2023-03-23T02:39:04;2.70;;;2.03;;
79052;SDS011;68451;49.510;6.026;2023-03-23T02:41:36;3.03;;;2.33;;
79052;SDS011;68451;49.510;6.026;2023-03-23T02:44:12;2.83;;;1.70;;
79052;SDS011;68451;49.510;6.026;2023-03-23T02:46:39;2.45;;;1.95;;
79052;SDS011;68451;49.510;6.026;2023-03-23T02:49:06;3.78;;;2.08;;
79052;SDS011;68451;49.510;6.026;2023-03-23T02:51:33;3.63;;;2.30;;
79052;SDS011;68451;49.510;6.026;2023-03-23T02:54:00;3.47;;;2.05;;
79052;SDS011;68451;49.510;6.026;2023-03-23T02:56:27;2.97;;;2.15;;
79052;SDS011;68451;49.510;6.026;2023-03-23T02:58:55;2.70;;;2.17;;
79052;SDS011;68451;49.510;6.026;2023-03-23T03:04:16;4.00;;;2.78;;
79052;SDS011;68451;49.510;6.026;2023-03-23T03:09:49;2.42;;;2.20;;
79052;SDS011;68451;49.510;6.026;2023-03-23T03:12:24;2.60;;;1.80;;
79052;SDS011;68451;49.510;6.026;2023-03-23T03:18:04;4.00;;;2.20;;
79052;SDS011;68451;49.510;6.026;2023-03-23T03:20:37;2.65;;;1.77;;
79052;SDS011;68451;49.510;6.026;2023-03-23T03:23:09;2.83;;;2.13;;
79052;SDS011;68451;49.510;6.026;2023-03-23T03:25:38;2.35;;;1.70;;
79052;SDS011;68451;49.510;6.026;2023-03-23T03:28:06;3.42;;;2.42;;
79052;SDS011;68451;49.510;6.026;2023-03-23T03:30:32;2.63;;;1.85;;
79052;SDS011;68451;49.510;6.026;2023-03-23T03:33:00;2.67;;;1.80;;
79052;SDS011;68451;49.510;6.026;2023-03-23T03:35:28;3.30;;;1.85;;
79052;SDS011;68451;49.510;6.026;2023-03-23T03:37:56;4.00;;;2.22;;
79052;SDS011;68451;49.510;6.026;2023-03-23T03:40:23;2.13;;;1.70;;
79052;SDS011;68451;49.510;6.026;2023-03-23T03:42:49;2.58;;;2.10;;
79052;SDS011;68451;49.510;6.026;2023-03-23T03:45:16;2.00;;;1.80;;
79052;SDS011;68451;49.510;6.026;2023-03-23T03:47:44;2.20;;;1.70;;
79052;SDS011;68451;49.510;6.026;2023-03-23T03:50:10;2.20;;;1.63;;
79052;SDS011;68451;49.510;6.026;2023-03-23T03:52:37;2.13;;;1.45;;
79052;SDS011;68451;49.510;6.026;2023-03-23T03:55:03;2.97;;;1.70;;
79052;SDS011;68451;49.510;6.026;2023-03-23T03:57:30;2.75;;;1.90;;
79052;SDS011;68451;49.510;6.026;2023-03-23T03:59:55;2.10;;;1.70;;
79052;SDS011;68451;49.510;6.026;2023-03-23T04:02:21;2.10;;;1.55;;
79052;SDS011;68451;49.510;6.026;2023-03-23T04:04:47;3.03;;;1.67;;
79052;SDS011;68451;49.510;6.026;2023-03-23T04:07:13;2.03;;;1.58;;
79052;SDS011;68451;49.510;6.026;2023-03-23T04:09:41;2.55;;;1.52;;
79052;SDS011;68451;49.510;6.026;2023-03-23T04:12:11;2.47;;;2.05;;
79052;SDS011;68451;49.510;6.026;2023-03-23T04:14:37;2.17;;;1.80;;
79052;SDS011;68451;49.510;6.026;2023-03-23T04:17:03;2.00;;;1.55;;
79052;SDS011;68451;49.510;6.026;2023-03-23T04:19:28;1.77;;;1.50;;
79052;SDS011;68451;49.510;6.026;2023-03-23T04:21:58;3.67;;;2.08;;
79052;SDS011;68451;49.510;6.026;2023-03-23T04:24:24;2.50;;;2.03;;
79052;SDS011;68451;49.510;6.026;2023-03-23T04:26:49;2.20;;;1.73;;
79052;SDS011;68451;49.510;6.026;2023-03-23T04:29:17;2.20;;;1.92;;
79052;SDS011;68451;49.510;6.026;2023-03-23T04:31:44;2.20;;;1.98;;
79052;SDS011;68451;49.510;6.026;2023-03-23T04:34:10;2.08;;;1.52;;
79052;SDS011;68451;49.510;6.026;2023-03-23T04:36:38;2.42;;;1.67;;
79052;SDS011;68451;49.510;6.026;2023-03-23T04:39:06;2.55;;;1.98;;
79052;SDS011;68451;49.510;6.026;2023-03-23T04:41:35;2.22;;;1.90;;
79052;SDS011;68451;49.510;6.026;2023-03-23T04:44:01;2.28;;;1.60;;
79052;SDS011;68451;49.510;6.026;2023-03-23T04:46:28;1.65;;;1.35;;
79052;SDS011;68451;49.510;6.026;2023-03-23T04:48:54;1.77;;;1.60;;
79052;SDS011;68451;49.510;6.026;2023-03-23T04:51:19;2.22;;;1.60;;
79052;SDS011;68451;49.510;6.026;2023-03-23T04:53:45;4.00;;;1.80;;
79052;SDS011;68451;49.510;6.026;2023-03-23T04:56:10;1.70;;;1.60;;
79052;SDS011;68451;49.510;6.026;2023-03-23T04:58:39;1.88;;;1.50;;
79052;SDS011;68451;49.510;6.026;2023-03-23T05:01:05;1.65;;;1.42;;
79052;SDS011;68451;49.510;6.026;2023-03-23T05:03:31;2.60;;;1.63;;
79052;SDS011;68451;49.510;6.026;2023-03-23T05:05:57;2.00;;;1.67;;
79052;SDS011;68451;49.510;6.026;2023-03-23T05:08:22;1.50;;;1.40;;
79052;SDS011;68451;49.510;6.026;2023-03-23T05:10:52;1.50;;;1.35;;
79052;SDS011;68451;49.510;6.026;2023-03-23T05:13:19;1.48;;;1.25;;
79052;SDS011;68451;49.510;6.026;2023-03-23T05:15:45;2.40;;;1.60;;
79052;SDS011;68451;49.510;6.026;2023-03-23T05:18:11;2.63;;;1.45;;
79052;SDS011;68451;49.510;6.026;2023-03-23T05:20:37;2.70;;;1.50;;
79052;SDS011;68451;49.510;6.026;2023-03-23T05:23:02;1.33;;;1.08;;
79052;SDS011;68451;49.510;6.026;2023-03-23T05:25:28;1.60;;;1.23;;
79052;SDS011;68451;49.510;6.026;2023-03-23T05:27:53;1.95;;;1.50;;
79052;SDS011;68451;49.510;6.026;2023-03-23T05:30:19;2.03;;;1.42;;
79052;SDS011;68451;49.510;6.026;2023-03-23T05:32:46;2.25;;;1.73;;
79052;SDS011;68451;49.510;6.026;2023-03-23T05:35:15;2.42;;;1.48;;
79052;SDS011;68451;49.510;6.026;2023-03-23T05:37:42;2.80;;;1.42;;
79052;SDS011;68451;49.510;6.026;2023-03-23T05:40:09;2.67;;;1.52;;
79052;SDS011;68451;49.510;6.026;2023-03-23T05:42:36;1.67;;;1.20;;
79052;SDS011;68451;49.510;6.026;2023-03-23T05:45:03;1.65;;;1.27;;
79052;SDS011;68451;49.510;6.026;2023-03-23T05:47:30;2.47;;;1.73;;
79052;SDS011;68451;49.510;6.026;2023-03-23T05:49:56;1.90;;;1.52;;
79052;SDS011;68451;49.510;6.026;2023-03-23T05:52:21;1.75;;;1.65;;
79052;SDS011;68451;49.510;6.026;2023-03-23T05:54:49;2.53;;;1.40;;
79052;SDS011;68451;49.510;6.026;2023-03-23T05:57:15;1.70;;;1.30;;
79052;SDS011;68451;49.510;6.026;2023-03-23T05:59:43;2.10;;;1.30;;
79052;SDS011;68451;49.510;6.026;2023-03-23T06:02:10;2.20;;;1.63;;
79052;SDS011;68451;49.510;6.026;2023-03-23T06:04:35;2.65;;;1.63;;
79052;SDS011;68451;49.510;6.026;2023-03-23T06:07:03;1.70;;;1.27;;
79052;SDS011;68451;49.510;6.026;2023-03-23T06:09:29;1.98;;;1.42;;
79052;SDS011;68451;49.510;6.026;2023-03-23T06:11:55;2.95;;;1.67;;
79052;SDS011;68451;49.510;6.026;2023-03-23T06:14:21;2.95;;;1.73;;
79052;SDS011;68451;49.510;6.026;2023-03-23T06:16:47;3.88;;;1.60;;
79052;SDS011;68451;49.510;6.026;2023-03-23T06:19:13;2.58;;;1.55;;
79052;SDS011;68451;49.510;6.026;2023-03-23T06:21:40;1.95;;;1.63;;
79052;SDS011;68451;49.510;6.026;2023-03-23T06:24:06;2.22;;;1.55;;
79052;SDS011;68451;49.510;6.026;2023-03-23T06:26:32;3.55;;;1.70;;
79052;SDS011;68451;49.510;6.026;2023-03-23T06:29:00;2.00;;;1.70;;
79052;SDS011;68451;49.510;6.026;2023-03-23T06:31:26;2.22;;;1.40;;
79052;SDS011;68451;49.510;6.026;2023-03-23T06:33:52;2.03;;;1.85;;
79052;SDS011;68451;49.510;6.026;2023-03-23T06:36:18;5.22;;;1.65;;
79052;SDS011;68451;49.510;6.026;2023-03-23T06:38:43;2.47;;;1.70;;
79052;SDS011;68451;49.510;6.026;2023-03-23T06:41:10;3.15;;;1.63;;
79052;SDS011;68451;49.510;6.026;2023-03-23T06:43:36;5.25;;;1.77;;
79052;SDS011;68451;49.510;6.026;2023-03-23T06:46:05;2.85;;;1.40;;
79052;SDS011;68451;49.510;6.026;2023-03-23T06:48:31;2.45;;;1.58;;
79052;SDS011;68451;49.510;6.026;2023-03-23T06:50:57;2.28;;;1.67;;
79052;SDS011;68451;49.510;6.026;2023-03-23T06:53:23;3.40;;;1.60;;
79052;SDS011;68451;49.510;6.026;2023-03-23T06:55:49;3.53;;;1.52;;
79052;SDS011;68451;49.510;6.026;2023-03-23T06:58:15;3.90;;;1.70;;
79052;SDS011;68451;49.510;6.026;2023-03-23T07:00:41;2.83;;;1.73;;
79052;SDS011;68451;49.510;6.026;2023-03-23T07:03:07;2.67;;;1.63;;
79052;SDS011;68451;49.510;6.026;2023-03-23T07:05:33;1.92;;;1.40;;
79052;SDS011;68451;49.510;6.026;2023-03-23T07:08:00;2.42;;;1.92;;
79052;SDS011;68451;49.510;6.026;2023-03-23T07:10:27;2.15;;;1.80;;
79052;SDS011;68451;49.510;6.026;2023-03-23T07:12:53;1.55;;;1.30;;
79052;SDS011;68451;49.510;6.026;2023-03-23T07:15:19;2.20;;;1.40;;
79052;SDS011;68451;49.510;6.026;2023-03-23T07:17:44;2.30;;;1.70;;
79052;SDS011;68451;49.510;6.026;2023-03-23T07:20:10;3.92;;;1.45;;
79052;SDS011;68451;49.510;6.026;2023-03-23T07:22:36;3.05;;;1.75;;
79052;SDS011;68451;49.510;6.026;2023-03-23T07:25:03;3.08;;;1.40;;
79052;SDS011;68451;49.510;6.026;2023-03-23T07:27:29;2.90;;;1.40;;
79052;SDS011;68451;49.510;6.026;2023-03-23T07:29:55;2.20;;;1.73;;
79052;SDS011;68451;49.510;6.026;2023-03-23T07:32:22;1.75;;;1.05;;
79052;SDS011;68451;49.510;6.026;2023-03-23T07:34:48;2.95;;;1.70;;
79052;SDS011;68451;49.510;6.026;2023-03-23T07:37:13;1.95;;;1.45;;
79052;SDS011;68451;49.510;6.026;2023-03-23T07:39:39;1.88;;;1.33;;
79052;SDS011;68451;49.510;6.026;2023-03-23T07:42:09;2.58;;;1.15;;
79052;SDS011;68451;49.510;6.026;2023-03-23T07:44:34;2.90;;;1.42;;
79052;SDS011;68451;49.510;6.026;2023-03-23T07:47:00;2.30;;;1.30;;
79052;SDS011;68451;49.510;6.026;2023-03-23T07:49:26;2.72;;;1.30;;
79052;SDS011;68451;49.510;6.026;2023-03-23T07:51:52;1.92;;;1.40;;
79052;SDS011;68451;49.510;6.026;2023-03-23T07:54:18;2.40;;;1.70;;
79052;SDS011;68451;49.510;6.026;2023-03-23T07:56:44;3.42;;;1.50;;
79052;SDS011;68451;49.510;6.026;2023-03-23T07:59:10;2.53;;;1.73;;
79052;SDS011;68451;49.510;6.026;2023-03-23T08:01:37;1.52;;;1.20;;
79052;SDS011;68451;49.510;6.026;2023-03-23T08:04:04;3.17;;;1.77;;
79052;SDS011;68451;49.510;6.026;2023-03-23T08:06:31;2.55;;;1.23;;
79052;SDS011;68451;49.510;6.026;2023-03-23T08:12:19;3.17;;;1.40;;
79052;SDS011;68451;49.510;6.026;2023-03-23T08:14:45;3.25;;;2.20;;
79052;SDS011;68451;49.510;6.026;2023-03-23T08:17:13;3.90;;;1.20;;
79052;SDS011;68451;49.510;6.026;2023-03-23T08:19:39;2.35;;;1.55;;
79052;SDS011;68451;49.510;6.026;2023-03-23T08:22:05;4.10;;;1.30;;
79052;SDS011;68451;49.510;6.026;2023-03-23T08:24:31;2.15;;;1.55;;
79052;SDS011;68451;49.510;6.026;2023-03-23T08:26:57;2.63;;;1.55;;
79052;SDS011;68451;49.510;6.026;2023-03-23T08:29:24;1.15;;;1.05;;
79052;SDS011;68451;49.510;6.026;2023-03-23T08:31:49;2.30;;;1.35;;
79052;SDS011;68451;49.510;6.026;2023-03-23T08:34:15;1.60;;;1.00;;
79052;SDS011;68451;49.510;6.026;2023-03-23T08:36:42;3.55;;;1.60;;
79052;SDS011;68451;49.510;6.026;2023-03-23T08:39:09;1.92;;;1.00;;
79052;SDS011;68451;49.510;6.026;2023-03-23T08:41:35;2.00;;;1.10;;
79052;SDS011;68451;49.510;6.026;2023-03-23T08:44:01;3.25;;;1.48;;
79052;SDS011;68451;49.510;6.026;2023-03-23T08:46:26;1.40;;;1.30;;
79052;SDS011;68451;49.510;6.026;2023-03-23T08:48:52;2.00;;;1.20;;
79052;SDS011;68451;49.510;6.026;2023-03-23T08:51:19;1.83;;;1.40;;
79052;SDS011;68451;49.510;6.026;2023-03-23T08:53:44;2.10;;;1.13;;
79052;SDS011;68451;49.510;6.026;2023-03-23T08:56:10;2.47;;;1.40;;
79052;SDS011;68451;49.510;6.026;2023-03-23T08:58:38;1.77;;;1.38;;
79052;SDS011;68451;49.510;6.026;2023-03-23T09:01:05;2.30;;;1.55;;
79052;SDS011;68451;49.510;6.026;2023-03-23T09:03:32;2.35;;;1.30;;
79052;SDS011;68451;49.510;6.026;2023-03-23T09:06:02;1.27;;;0.90;;
79052;SDS011;68451;49.510;6.026;2023-03-23T09:08:30;1.60;;;1.50;;
79052;SDS011;68451;49.510;6.026;2023-03-23T09:10:59;2.90;;;1.60;;
79052;SDS011;68451;49.510;6.026;2023-03-23T09:13:25;1.90;;;1.25;;
79052;SDS011;68451;49.510;6.026;2023-03-23T09:15:51;1.45;;;1.27;;
79052;SDS011;68451;49.510;6.026;2023-03-23T09:18:17;1.95;;;1.10;;
79052;SDS011;68451;49.510;6.026;2023-03-23T09:20:43;2.03;;;1.27;;
79052;SDS011;68451;49.510;6.026;2023-03-23T09:23:09;2.00;;;1.23;;
79052;SDS011;68451;49.510;6.026;2023-03-23T09:25:35;2.15;;;1.58;;
79052;SDS011;68451;49.510;6.026;2023-03-23T09:28:00;1.30;;;0.98;;
79052;SDS011;68451;49.510;6.026;2023-03-23T09:30:28;1.63;;;1.23;;
79052;SDS011;68451;49.510;6.026;2023-03-23T09:32:55;2.85;;;1.30;;
79052;SDS011;68451;49.510;6.026;2023-03-23T09:35:21;2.40;;;1.50;;
79052;SDS011;68451;49.510;6.026;2023-03-23T09:37:48;2.22;;;1.92;;
79052;SDS011;68451;49.510;6.026;2023-03-23T09:40:19;2.35;;;1.60;;
79052;SDS011;68451;49.510;6.026;2023-03-23T09:42:58;2.38;;;1.17;;
79052;SDS011;68451;49.510;6.026;2023-03-23T09:45:41;2.30;;;1.50;;
79052;SDS011;68451;49.510;6.026;2023-03-23T09:48:37;2.45;;;1.33;;
79052;SDS011;68451;49.510;6.026;2023-03-23T09:54:04;1.67;;;1.40;;
79052;SDS011;68451;49.510;6.026;2023-03-23T09:56:35;1.38;;;1.20;;
79052;SDS011;68451;49.510;6.026;2023-03-23T10:02:09;2.53;;;1.50;;
79052;SDS011;68451;49.510;6.026;2023-03-23T10:04:48;1.20;;;1.10;;
79052;SDS011;68451;49.510;6.026;2023-03-23T10:07:16;2.15;;;1.30;;
79052;SDS011;68451;49.510;6.026;2023-03-23T10:09:45;2.03;;;1.05;;
79052;SDS011;68451;49.510;6.026;2023-03-23T10:12:21;2.57;;;1.37;;
79052;SDS011;68451;49.510;6.026;2023-03-23T10:17:42;2.38;;;1.35;;
79052;SDS011;68451;49.510;6.026;2023-03-23T10:20:21;0.82;;;0.70;;
79052;SDS011;68451;49.510;6.026;2023-03-23T10:26:00;1.55;;;1.00;;
79052;SDS011;68451;49.510;6.026;2023-03-23T10:28:36;1.40;;;1.30;;
79052;SDS011;68451;49.510;6.026;2023-03-23T10:31:11;2.17;;;1.13;;
79052;SDS011;68451;49.510;6.026;2023-03-23T10:36:13;1.98;;;1.08;;
79052;SDS011;68451;49.510;6.026;2023-03-23T10:38:47;1.67;;;1.20;;
79052;SDS011;68451;49.510;6.026;2023-03-23T10:41:19;1.83;;;0.90;;
79052;SDS011;68451;49.510;6.026;2023-03-23T10:43:46;3.17;;;1.27;;
79052;SDS011;68451;49.510;6.026;2023-03-23T10:48:47;2.42;;;1.30;;
79052;SDS011;68451;49.510;6.026;2023-03-23T10:51:16;2.45;;;1.17;;
79052;SDS011;68451;49.510;6.026;2023-03-23T10:53:49;2.78;;;1.40;;
79052;SDS011;68451;49.510;6.026;2023-03-23T10:56:26;1.20;;;1.10;;
79052;SDS011;68451;49.510;6.026;2023-03-23T10:58:54;1.25;;;0.98;;
79052;SDS011;68451;49.510;6.026;2023-03-23T11:01:28;3.20;;;1.30;;
79052;SDS011;68451;49.510;6.026;2023-03-23T11:03:56;1.40;;;1.10;;
79052;SDS011;68451;49.510;6.026;2023-03-23T11:06:24;2.15;;;1.13;;
79052;SDS011;68451;49.510;6.026;2023-03-23T11:08:54;1.80;;;1.33;;
79052;SDS011;68451;49.510;6.026;2023-03-23T11:11:27;1.40;;;1.10;;
79052;SDS011;68451;49.510;6.026;2023-03-23T11:13:58;1.55;;;1.02;;
79052;SDS011;68451;49.510;6.026;2023-03-23T11:16:32;1.10;;;1.00;;
79052;SDS011;68451;49.510;6.026;2023-03-23T11:19:11;2.83;;;1.80;;
79052;SDS011;68451;49.510;6.026;2023-03-23T11:21:39;1.63;;;1.00;;
79052;SDS011;68451;49.510;6.026;2023-03-23T11:24:05;2.03;;;0.95;;
79052;SDS011;68451;49.510;6.026;2023-03-23T11:26:34;1.20;;;1.02;;
79052;SDS011;68451;49.510;6.026;2023-03-23T11:29:12;1.10;;;0.90;;
79052;SDS011;68451;49.510;6.026;2023-03-23T11:31:43;1.27;;;1.00;;
79052;SDS011;68451;49.510;6.026;2023-03-23T11:34:13;1.50;;;1.25;;
79052;SDS011;68451;49.510;6.026;2023-03-23T11:36:42;1.58;;;1.00;;
79052;SDS011;68451;49.510;6.026;2023-03-23T11:39:25;0.98;;;0.90;;
79052;SDS011;68451;49.510;6.026;2023-03-23T11:42:12;1.30;;;1.10;;
79052;SDS011;68451;49.510;6.026;2023-03-23T11:44:43;1.35;;;0.95;;
79052;SDS011;68451;49.510;6.026;2023-03-23T11:53:00;1.05;;;0.90;;
79052;SDS011;68451;49.510;6.026;2023-03-23T11:55:53;1.45;;;1.10;;
79052;SDS011;68451;49.510;6.026;2023-03-23T11:58:25;2.88;;;1.42;;
79052;SDS011;68451;49.510;6.026;2023-03-23T12:00:58;1.60;;;1.00;;
79052;SDS011;68451;49.510;6.026;2023-03-23T12:09:26;1.10;;;1.00;;
79052;SDS011;68451;49.510;6.026;2023-03-23T12:12:12;0.93;;;0.82;;
79052;SDS011;68451;49.510;6.026;2023-03-23T12:17:37;1.92;;;1.33;;
79052;SDS011;68451;49.510;6.026;2023-03-23T12:20:25;1.40;;;1.30;;
79052;SDS011;68451;49.510;6.026;2023-03-23T12:23:08;1.38;;;1.00;;
79052;SDS011;68451;49.510;6.026;2023-03-23T12:31:25;2.45;;;1.40;;
79052;SDS011;68451;49.510;6.026;2023-03-23T12:34:13;1.63;;;1.30;;
79052;SDS011;68451;49.510;6.026;2023-03-23T12:36:59;1.25;;;1.05;;
79052;SDS011;68451;49.510;6.026;2023-03-23T12:39:56;1.33;;;1.23;;
79052;SDS011;68451;49.510;6.026;2023-03-23T12:42:40;1.38;;;1.10;;
79052;SDS011;68451;49.510;6.026;2023-03-23T12:45:21;1.45;;;1.20;;
79052;SDS011;68451;49.510;6.026;2023-03-23T12:48:02;1.10;;;1.00;;
79052;SDS011;68451;49.510;6.026;2023-03-23T12:50:40;3.55;;;1.52;;
79052;SDS011;68451;49.510;6.026;2023-03-23T12:53:16;1.17;;;1.08;;
79052;SDS011;68451;49.510;6.026;2023-03-23T12:55:47;1.30;;;1.10;;
79052;SDS011;68451;49.510;6.026;2023-03-23T12:58:19;2.60;;;0.90;;
79052;SDS011;68451;49.510;6.026;2023-03-23T13:00:53;1.65;;;1.20;;
79052;SDS011;68451;49.510;6.026;2023-03-23T13:03:27;1.95;;;1.25;;
79052;SDS011;68451;49.510;6.026;2023-03-23T13:08:53;1.67;;;1.30;;
79052;SDS011;68451;49.510;6.026;2023-03-23T13:11:25;4.05;;;1.42;;
79052;SDS011;68451;49.510;6.026;2023-03-23T13:16:54;2.20;;;1.13;;
79052;SDS011;68451;49.510;6.026;2023-03-23T13:19:53;2.25;;;1.25;;
79052;SDS011;68451;49.510;6.026;2023-03-23T13:22:39;1.75;;;1.10;;
79052;SDS011;68451;49.510;6.026;2023-03-23T13:25:13;1.13;;;0.95;;
79052;SDS011;68451;49.510;6.026;2023-03-23T13:27:44;4.95;;;1.45;;
79052;SDS011;68451;49.510;6.026;2023-03-23T13:30:21;2.28;;;1.17;;
79052;SDS011;68451;49.510;6.026;2023-03-23T13:32:50;1.40;;;1.17;;
79052;SDS011;68451;49.510;6.026;2023-03-23T13:35:18;1.48;;;1.17;;
79052;SDS011;68451;49.510;6.026;2023-03-23T13:37:51;1.33;;;1.10;;
79052;SDS011;68451;49.510;6.026;2023-03-23T13:40:29;1.73;;;1.17;;
79052;SDS011;68451;49.510;6.026;2023-03-23T13:42:57;2.95;;;1.45;;
79052;SDS011;68451;49.510;6.026;2023-03-23T13:45:44;1.50;;;1.00;;
79052;SDS011;68451;49.510;6.026;2023-03-23T13:48:18;1.67;;;1.10;;
79052;SDS011;68451;49.510;6.026;2023-03-23T13:50:55;2.03;;;1.30;;
79052;SDS011;68451;49.510;6.026;2023-03-23T13:53:27;2.20;;;1.20;;
79052;SDS011;68451;49.510;6.026;2023-03-23T13:59:07;2.05;;;1.45;;
79052;SDS011;68451;49.510;6.026;2023-03-23T14:01:41;1.23;;;0.82;;
79052;SDS011;68451;49.510;6.026;2023-03-23T14:04:17;1.63;;;1.10;;
79052;SDS011;68451;49.510;6.026;2023-03-23T14:06:44;1.70;;;1.25;;
79052;SDS011;68451;49.510;6.026;2023-03-23T14:09:22;1.85;;;1.15;;
79052;SDS011;68451;49.510;6.026;2023-03-23T14:11:56;1.45;;;0.85;;
79052;SDS011;68451;49.510;6.026;2023-03-23T14:14:26;1.65;;;1.25;;
79052;SDS011;68451;49.510;6.026;2023-03-23T14:17:05;1.50;;;1.02;;
79052;SDS011;68451;49.510;6.026;2023-03-23T14:19:48;2.20;;;1.10;;
79052;SDS011;68451;49.510;6.026;2023-03-23T14:22:24;2.78;;;1.38;;
79052;SDS011;68451;49.510;6.026;2023-03-23T14:24:53;1.17;;;0.82;;
79052;SDS011;68451;49.510;6.026;2023-03-23T14:27:26;1.33;;;1.10;;
79052;SDS011;68451;49.510;6.026;2023-03-23T14:32:32;2.00;;;1.30;;
79052;SDS011;68451;49.510;6.026;2023-03-23T14:34:58;1.10;;;1.00;;
79052;SDS011;68451;49.510;6.026;2023-03-23T14:37:26;1.35;;;1.13;;
79052;SDS011;68451;49.510;6.026;2023-03-23T14:39:52;1.98;;;0.90;;
79052;SDS011;68451;49.510;6.026;2023-03-23T14:42:29;1.08;;;0.90;;
79052;SDS011;68451;49.510;6.026;2023-03-23T14:44:57;1.98;;;1.13;;
79052;SDS011;68451;49.510;6.026;2023-03-23T14:47:30;1.42;;;1.02;;
79052;SDS011;68451;49.510;6.026;2023-03-23T14:49:59;1.35;;;1.13;;
79052;SDS011;68451;49.510;6.026;2023-03-23T14:52:27;2.55;;;1.20;;
79052;SDS011;68451;49.510;6.026;2023-03-23T14:54:54;1.75;;;1.10;;
79052;SDS011;68451;49.510;6.026;2023-03-23T14:57:28;1.95;;;1.25;;
79052;SDS011;68451;49.510;6.026;2023-03-23T14:59:55;0.95;;;0.88;;
79052;SDS011;68451;49.510;6.026;2023-03-23T15:02:23;1.70;;;1.30;;
79052;SDS011;68451;49.510;6.026;2023-03-23T15:05:03;1.70;;;0.90;;
79052;SDS011;68451;49.510;6.026;2023-03-23T15:07:35;1.35;;;1.17;;
79052;SDS011;68451;49.510;6.026;2023-03-23T15:10:06;1.42;;;1.02;;
79052;SDS011;68451;49.510;6.026;2023-03-23T15:12:36;1.27;;;0.95;;
79052;SDS011;68451;49.510;6.026;2023-03-23T15:15:03;1.63;;;1.02;;
79052;SDS011;68451;49.510;6.026;2023-03-23T15:17:35;1.17;;;1.00;;
79052;SDS011;68451;49.510;6.026;2023-03-23T15:20:09;1.70;;;1.40;;
79052;SDS011;68451;49.510;6.026;2023-03-23T15:22:47;1.52;;;0.88;;
79052;SDS011;68451;49.510;6.026;2023-03-23T15:25:18;2.45;;;0.90;;
79052;SDS011;68451;49.510;6.026;2023-03-23T15:27:55;1.45;;;1.20;;
79052;SDS011;68451;49.510;6.026;2023-03-23T15:30:29;1.77;;;1.00;;
79052;SDS011;68451;49.510;6.026;2023-03-23T15:33:01;1.25;;;0.90;;
79052;SDS011;68451;49.510;6.026;2023-03-23T15:35:32;1.23;;;0.90;;
79052;SDS011;68451;49.510;6.026;2023-03-23T15:38:01;1.90;;;1.38;;
79052;SDS011;68451;49.510;6.026;2023-03-23T15:40:35;3.13;;;0.90;;
79052;SDS011;68451;49.510;6.026;2023-03-23T15:43:15;1.67;;;1.40;;
79052;SDS011;68451;49.510;6.026;2023-03-23T15:48:28;2.20;;;0.80;;
79052;SDS011;68451;49.510;6.026;2023-03-23T15:50:55;2.33;;;1.08;;
79052;SDS011;68451;49.510;6.026;2023-03-23T15:53:31;2.65;;;1.02;;
79052;SDS011;68451;49.510;6.026;2023-03-23T15:55:59;1.52;;;0.90;;
79052;SDS011;68451;49.510;6.026;2023-03-23T15:58:26;1.70;;;1.33;;
79052;SDS011;68451;49.510;6.026;2023-03-23T16:00:52;1.45;;;1.27;;
79052;SDS011;68451;49.510;6.026;2023-03-23T16:03:21;1.00;;;0.90;;
79052;SDS011;68451;49.510;6.026;2023-03-23T16:05:55;1.45;;;1.10;;
79052;SDS011;68451;49.510;6.026;2023-03-23T16:08:24;1.25;;;0.82;;
79052;SDS011;68451;49.510;6.026;2023-03-23T16:10:50;2.17;;;1.20;;
79052;SDS011;68451;49.510;6.026;2023-03-23T16:13:16;1.10;;;0.90;;
79052;SDS011;68451;49.510;6.026;2023-03-23T16:15:43;1.98;;;1.00;;
79052;SDS011;68451;49.510;6.026;2023-03-23T16:18:16;1.88;;;1.10;;